sensor_id;sensor_type;location;lat;lon;timestamp;P1;durP1;ratioP1;P2;durP2;ratioP2
3718;SDS011;1875;52.492;6.860;2024-03-02T00:00:59;7.05;;;2.95;;
3718;SDS011;1875;52.492;6.860;2024-03-02T00:03:27;6.60;;;3.60;;
3718;SDS011;1875;52.492;6.860;2024-03-02T00:05:55;9.00;;;3.50;;
3718;SDS011;1875;52.492;6.860;2024-03-02T00:08:23;8.38;;;3.10;;
3718;SDS011;1875;52.492;6.860;2024-03-02T00:10:55;7.88;;;4.00;;
3718;SDS011;1875;52.492;6.860;2024-03-02T00:13:26;9.68;;;3.08;;
3718;SDS011;1875;52.492;6.860;2024-03-02T00:18:24;6.13;;;2.72;;
3718;SDS011;1875;52.492;6.860;2024-03-02T00:20:53;5.07;;;2.20;;
3718;SDS011;1875;52.492;6.860;2024-03-02T00:23:23;5.35;;;2.70;;
3718;SDS011;1875;52.492;6.860;2024-03-02T00:25:52;5.82;;;2.72;;
3718;SDS011;1875;52.492;6.860;2024-03-02T00:28:21;5.90;;;2.60;;
3718;SDS011;1875;52.492;6.860;2024-03-02T00:30:54;7.47;;;3.28;;
3718;SDS011;1875;52.492;6.860;2024-03-02T00:33:25;4.75;;;2.55;;
3718;SDS011;1875;52.492;6.860;2024-03-02T00:35:54;5.18;;;2.60;;
3718;SDS011;1875;52.492;6.860;2024-03-02T00:38:22;7.03;;;3.10;;
3718;SDS011;1875;52.492;6.860;2024-03-02T00:40:50;7.22;;;2.45;;
3718;SDS011;1875;52.492;6.860;2024-03-02T00:43:27;5.88;;;2.90;;
3718;SDS011;1875;52.492;6.860;2024-03-02T00:46:22;5.07;;;3.15;;
3718;SDS011;1875;52.492;6.860;2024-03-02T00:48:53;9.02;;;2.83;;
3718;SDS011;1875;52.492;6.860;2024-03-02T00:51:23;5.72;;;2.38;;
3718;SDS011;1875;52.492;6.860;2024-03-02T00:53:51;6.18;;;2.65;;
3718;SDS011;1875;52.492;6.860;2024-03-02T00:56:22;5.75;;;3.00;;
3718;SDS011;1875;52.492;6.860;2024-03-02T00:58:50;10.73;;;3.00;;
3718;SDS011;1875;52.492;6.860;2024-03-02T01:01:19;6.10;;;2.90;;
3718;SDS011;1875;52.492;6.860;2024-03-02T01:03:48;6.28;;;2.90;;
3718;SDS011;1875;52.492;6.860;2024-03-02T01:06:17;5.35;;;2.47;;
3718;SDS011;1875;52.492;6.860;2024-03-02T01:08:45;5.53;;;2.80;;
3718;SDS011;1875;52.492;6.860;2024-03-02T01:11:16;5.07;;;2.70;;
3718;SDS011;1875;52.492;6.860;2024-03-02T01:13:45;5.40;;;2.58;;
3718;SDS011;1875;52.492;6.860;2024-03-02T01:16:13;5.10;;;2.63;;
3718;SDS011;1875;52.492;6.860;2024-03-02T01:18:42;6.32;;;3.20;;
3718;SDS011;1875;52.492;6.860;2024-03-02T01:21:11;3.83;;;2.47;;
3718;SDS011;1875;52.492;6.860;2024-03-02T01:23:39;5.22;;;3.00;;
3718;SDS011;1875;52.492;6.860;2024-03-02T01:26:07;5.35;;;3.42;;
3718;SDS011;1875;52.492;6.860;2024-03-02T01:28:35;7.20;;;3.03;;
3718;SDS011;1875;52.492;6.860;2024-03-02T01:31:03;5.13;;;2.50;;
3718;SDS011;1875;52.492;6.860;2024-03-02T01:33:31;6.45;;;2.85;;
3718;SDS011;1875;52.492;6.860;2024-03-02T01:35:58;4.68;;;2.70;;
3718;SDS011;1875;52.492;6.860;2024-03-02T01:38:28;7.00;;;2.92;;
3718;SDS011;1875;52.492;6.860;2024-03-02T01:40:56;6.72;;;2.80;;
3718;SDS011;1875;52.492;6.860;2024-03-02T01:43:24;13.63;;;2.97;;
3718;SDS011;1875;52.492;6.860;2024-03-02T01:45:52;5.93;;;2.83;;
3718;SDS011;1875;52.492;6.860;2024-03-02T01:48:20;8.52;;;3.05;;
3718;SDS011;1875;52.492;6.860;2024-03-02T01:50:48;5.82;;;2.33;;
3718;SDS011;1875;52.492;6.860;2024-03-02T01:53:16;6.07;;;2.65;;
3718;SDS011;1875;52.492;6.860;2024-03-02T01:55:45;5.20;;;2.95;;
3718;SDS011;1875;52.492;6.860;2024-03-02T01:58:13;6.35;;;2.90;;
3718;SDS011;1875;52.492;6.860;2024-03-02T02:00:41;6.07;;;2.47;;
3718;SDS011;1875;52.492;6.860;2024-03-02T02:03:08;7.45;;;3.00;;
3718;SDS011;1875;52.492;6.860;2024-03-02T02:05:36;6.18;;;3.10;;
3718;SDS011;1875;52.492;6.860;2024-03-02T02:08:04;7.00;;;3.50;;
3718;SDS011;1875;52.492;6.860;2024-03-02T02:10:32;5.38;;;2.60;;
3718;SDS011;1875;52.492;6.860;2024-03-02T02:13:01;6.28;;;3.22;;
3718;SDS011;1875;52.492;6.860;2024-03-02T02:15:30;5.40;;;2.63;;
3718;SDS011;1875;52.492;6.860;2024-03-02T02:17:58;6.47;;;2.75;;
3718;SDS011;1875;52.492;6.860;2024-03-02T02:20:26;6.53;;;3.53;;
3718;SDS011;1875;52.492;6.860;2024-03-02T02:22:56;5.95;;;3.15;;
3718;SDS011;1875;52.492;6.860;2024-03-02T02:25:25;6.22;;;3.10;;
3718;SDS011;1875;52.492;6.860;2024-03-02T02:27:53;6.28;;;3.00;;
3718;SDS011;1875;52.492;6.860;2024-03-02T02:30:21;5.55;;;2.92;;
3718;SDS011;1875;52.492;6.860;2024-03-02T02:32:50;8.43;;;3.63;;
3718;SDS011;1875;52.492;6.860;2024-03-02T02:35:18;6.75;;;3.42;;
3718;SDS011;1875;52.492;6.860;2024-03-02T02:37:46;6.22;;;2.78;;
3718;SDS011;1875;52.492;6.860;2024-03-02T02:40:16;6.43;;;3.47;;
3718;SDS011;1875;52.492;6.860;2024-03-02T02:42:45;6.53;;;3.28;;
3718;SDS011;1875;52.492;6.860;2024-03-02T02:45:13;8.32;;;2.83;;
3718;SDS011;1875;52.492;6.860;2024-03-02T02:47:42;7.07;;;3.10;;
3718;SDS011;1875;52.492;6.860;2024-03-02T02:50:10;7.15;;;3.08;;
3718;SDS011;1875;52.492;6.860;2024-03-02T02:52:39;6.28;;;3.17;;
3718;SDS011;1875;52.492;6.860;2024-03-02T02:55:08;6.40;;;3.30;;
3718;SDS011;1875;52.492;6.860;2024-03-02T02:57:40;6.65;;;2.65;;
3718;SDS011;1875;52.492;6.860;2024-03-02T03:00:10;5.68;;;2.90;;
3718;SDS011;1875;52.492;6.860;2024-03-02T03:02:42;7.35;;;3.10;;
3718;SDS011;1875;52.492;6.860;2024-03-02T03:05:11;5.72;;;2.97;;
3718;SDS011;1875;52.492;6.860;2024-03-02T03:07:40;4.43;;;2.30;;
3718;SDS011;1875;52.492;6.860;2024-03-02T03:10:08;5.05;;;2.60;;
3718;SDS011;1875;52.492;6.860;2024-03-02T03:12:36;4.60;;;2.67;;
3718;SDS011;1875;52.492;6.860;2024-03-02T03:15:06;4.93;;;2.30;;
3718;SDS011;1875;52.492;6.860;2024-03-02T03:17:35;5.10;;;2.38;;
3718;SDS011;1875;52.492;6.860;2024-03-02T03:20:04;5.43;;;2.72;;
3718;SDS011;1875;52.492;6.860;2024-03-02T03:22:36;5.53;;;2.63;;
3718;SDS011;1875;52.492;6.860;2024-03-02T03:25:04;5.78;;;2.10;;
3718;SDS011;1875;52.492;6.860;2024-03-02T03:30:01;7.60;;;2.53;;
3718;SDS011;1875;52.492;6.860;2024-03-02T03:32:30;4.72;;;1.92;;
3718;SDS011;1875;52.492;6.860;2024-03-02T03:34:58;3.90;;;1.67;;
3718;SDS011;1875;52.492;6.860;2024-03-02T03:37:26;4.78;;;1.83;;
3718;SDS011;1875;52.492;6.860;2024-03-02T03:40:00;3.90;;;2.05;;
3718;SDS011;1875;52.492;6.860;2024-03-02T03:42:28;5.25;;;2.22;;
3718;SDS011;1875;52.492;6.860;2024-03-02T03:44:56;3.65;;;2.05;;
3718;SDS011;1875;52.492;6.860;2024-03-02T03:47:24;5.85;;;2.30;;
3718;SDS011;1875;52.492;6.860;2024-03-02T03:49:53;6.65;;;2.10;;
3718;SDS011;1875;52.492;6.860;2024-03-02T03:52:21;4.65;;;2.15;;
3718;SDS011;1875;52.492;6.860;2024-03-02T03:54:49;4.68;;;2.30;;
3718;SDS011;1875;52.492;6.860;2024-03-02T03:57:17;4.72;;;2.05;;
3718;SDS011;1875;52.492;6.860;2024-03-02T03:59:44;3.95;;;1.90;;
3718;SDS011;1875;52.492;6.860;2024-03-02T04:02:13;5.05;;;2.28;;
3718;SDS011;1875;52.492;6.860;2024-03-02T04:04:41;6.93;;;2.65;;
3718;SDS011;1875;52.492;6.860;2024-03-02T04:07:11;6.20;;;2.35;;
3718;SDS011;1875;52.492;6.860;2024-03-02T04:09:39;3.38;;;2.03;;
3718;SDS011;1875;52.492;6.860;2024-03-02T04:12:07;5.70;;;2.45;;
3718;SDS011;1875;52.492;6.860;2024-03-02T04:14:35;3.75;;;1.88;;
3718;SDS011;1875;52.492;6.860;2024-03-02T04:17:04;5.38;;;2.33;;
3718;SDS011;1875;52.492;6.860;2024-03-02T04:19:32;5.85;;;2.40;;
3718;SDS011;1875;52.492;6.860;2024-03-02T04:22:00;5.57;;;2.35;;
3718;SDS011;1875;52.492;6.860;2024-03-02T04:24:42;4.35;;;2.38;;
3718;SDS011;1875;52.492;6.860;2024-03-02T04:27:10;6.00;;;2.75;;
3718;SDS011;1875;52.492;6.860;2024-03-02T04:29:37;5.95;;;2.58;;
3718;SDS011;1875;52.492;6.860;2024-03-02T04:32:05;4.65;;;2.60;;
3718;SDS011;1875;52.492;6.860;2024-03-02T04:34:34;4.45;;;2.30;;
3718;SDS011;1875;52.492;6.860;2024-03-02T04:37:02;4.35;;;2.20;;
3718;SDS011;1875;52.492;6.860;2024-03-02T04:39:29;4.95;;;2.50;;
3718;SDS011;1875;52.492;6.860;2024-03-02T04:41:58;5.57;;;2.20;;
3718;SDS011;1875;52.492;6.860;2024-03-02T04:44:26;4.97;;;2.53;;
3718;SDS011;1875;52.492;6.860;2024-03-02T04:46:54;4.60;;;2.22;;
3718;SDS011;1875;52.492;6.860;2024-03-02T04:49:22;3.70;;;1.85;;
3718;SDS011;1875;52.492;6.860;2024-03-02T04:51:50;4.40;;;2.30;;
3718;SDS011;1875;52.492;6.860;2024-03-02T04:54:18;4.38;;;2.38;;
3718;SDS011;1875;52.492;6.860;2024-03-02T04:56:46;4.43;;;2.35;;
3718;SDS011;1875;52.492;6.860;2024-03-02T04:59:18;7.05;;;2.40;;
3718;SDS011;1875;52.492;6.860;2024-03-02T05:01:46;4.93;;;2.28;;
3718;SDS011;1875;52.492;6.860;2024-03-02T05:04:14;4.47;;;2.10;;
3718;SDS011;1875;52.492;6.860;2024-03-02T05:06:42;4.05;;;2.20;;
3718;SDS011;1875;52.492;6.860;2024-03-02T05:09:10;4.88;;;2.30;;
3718;SDS011;1875;52.492;6.860;2024-03-02T05:11:38;5.03;;;2.90;;
3718;SDS011;1875;52.492;6.860;2024-03-02T05:14:27;4.43;;;2.33;;
3718;SDS011;1875;52.492;6.860;2024-03-02T05:16:55;4.65;;;2.47;;
3718;SDS011;1875;52.492;6.860;2024-03-02T05:19:23;5.47;;;2.58;;
3718;SDS011;1875;52.492;6.860;2024-03-02T05:21:51;5.35;;;2.83;;
3718;SDS011;1875;52.492;6.860;2024-03-02T05:24:19;8.20;;;3.35;;
3718;SDS011;1875;52.492;6.860;2024-03-02T05:26:47;5.93;;;2.83;;
3718;SDS011;1875;52.492;6.860;2024-03-02T05:29:15;7.00;;;2.47;;
3718;SDS011;1875;52.492;6.860;2024-03-02T05:31:45;5.97;;;3.22;;
3718;SDS011;1875;52.492;6.860;2024-03-02T05:34:12;5.30;;;2.65;;
3718;SDS011;1875;52.492;6.860;2024-03-02T05:36:40;7.68;;;3.13;;
3718;SDS011;1875;52.492;6.860;2024-03-02T05:39:08;7.50;;;2.67;;
3718;SDS011;1875;52.492;6.860;2024-03-02T05:41:36;5.47;;;2.88;;
3718;SDS011;1875;52.492;6.860;2024-03-02T05:44:05;4.65;;;2.25;;
3718;SDS011;1875;52.492;6.860;2024-03-02T05:46:32;6.95;;;2.90;;
3718;SDS011;1875;52.492;6.860;2024-03-02T05:51:31;4.53;;;2.20;;
3718;SDS011;1875;52.492;6.860;2024-03-02T05:53:59;5.03;;;2.63;;
3718;SDS011;1875;52.492;6.860;2024-03-02T05:56:27;8.38;;;2.83;;
3718;SDS011;1875;52.492;6.860;2024-03-02T05:58:55;7.38;;;2.70;;
3718;SDS011;1875;52.492;6.860;2024-03-02T06:01:34;7.30;;;3.13;;
3718;SDS011;1875;52.492;6.860;2024-03-02T06:04:04;7.32;;;2.92;;
3718;SDS011;1875;52.492;6.860;2024-03-02T06:06:32;6.78;;;2.95;;
3718;SDS011;1875;52.492;6.860;2024-03-02T06:09:00;12.27;;;3.15;;
3718;SDS011;1875;52.492;6.860;2024-03-02T06:11:28;5.65;;;3.15;;
3718;SDS011;1875;52.492;6.860;2024-03-02T06:13:56;5.25;;;2.92;;
3718;SDS011;1875;52.492;6.860;2024-03-02T06:16:24;7.32;;;3.45;;
3718;SDS011;1875;52.492;6.860;2024-03-02T06:18:52;7.63;;;3.63;;
3718;SDS011;1875;52.492;6.860;2024-03-02T06:21:22;9.43;;;2.88;;
3718;SDS011;1875;52.492;6.860;2024-03-02T06:23:49;6.03;;;2.80;;
3718;SDS011;1875;52.492;6.860;2024-03-02T06:26:17;4.55;;;2.78;;
3718;SDS011;1875;52.492;6.860;2024-03-02T06:28:49;6.63;;;2.63;;
3718;SDS011;1875;52.492;6.860;2024-03-02T06:31:18;5.38;;;2.80;;
3718;SDS011;1875;52.492;6.860;2024-03-02T06:33:46;5.10;;;2.63;;
3718;SDS011;1875;52.492;6.860;2024-03-02T06:36:14;6.05;;;3.17;;
3718;SDS011;1875;52.492;6.860;2024-03-02T06:38:44;6.15;;;2.70;;
3718;SDS011;1875;52.492;6.860;2024-03-02T06:41:12;4.68;;;2.35;;
3718;SDS011;1875;52.492;6.860;2024-03-02T06:43:40;4.90;;;2.83;;
3718;SDS011;1875;52.492;6.860;2024-03-02T06:46:08;5.88;;;2.22;;
3718;SDS011;1875;52.492;6.860;2024-03-02T06:48:36;5.40;;;2.55;;
3718;SDS011;1875;52.492;6.860;2024-03-02T06:51:04;6.40;;;3.38;;
3718;SDS011;1875;52.492;6.860;2024-03-02T06:53:31;6.72;;;3.08;;
3718;SDS011;1875;52.492;6.860;2024-03-02T06:56:01;6.32;;;3.22;;
3718;SDS011;1875;52.492;6.860;2024-03-02T06:58:30;9.48;;;3.00;;
3718;SDS011;1875;52.492;6.860;2024-03-02T07:00:58;7.63;;;3.15;;
3718;SDS011;1875;52.492;6.860;2024-03-02T07:03:27;6.13;;;2.90;;
3718;SDS011;1875;52.492;6.860;2024-03-02T07:05:55;7.75;;;3.05;;
3718;SDS011;1875;52.492;6.860;2024-03-02T07:08:23;7.43;;;3.22;;
3718;SDS011;1875;52.492;6.860;2024-03-02T07:10:51;5.75;;;2.53;;
3718;SDS011;1875;52.492;6.860;2024-03-02T07:13:20;8.35;;;3.90;;
3718;SDS011;1875;52.492;6.860;2024-03-02T07:15:48;5.95;;;3.35;;
3718;SDS011;1875;52.492;6.860;2024-03-02T07:18:42;7.13;;;3.05;;
3718;SDS011;1875;52.492;6.860;2024-03-02T07:23:45;5.75;;;3.05;;
3718;SDS011;1875;52.492;6.860;2024-03-02T07:26:13;5.63;;;2.95;;
3718;SDS011;1875;52.492;6.860;2024-03-02T07:28:45;7.70;;;3.15;;
3718;SDS011;1875;52.492;6.860;2024-03-02T07:31:14;8.05;;;4.05;;
3718;SDS011;1875;52.492;6.860;2024-03-02T07:33:43;10.02;;;4.20;;
3718;SDS011;1875;52.492;6.860;2024-03-02T07:36:11;9.18;;;4.45;;
3718;SDS011;1875;52.492;6.860;2024-03-02T07:38:39;11.55;;;5.53;;
3718;SDS011;1875;52.492;6.860;2024-03-02T07:41:07;10.10;;;5.47;;
3718;SDS011;1875;52.492;6.860;2024-03-02T07:43:35;10.02;;;5.53;;
3718;SDS011;1875;52.492;6.860;2024-03-02T07:46:04;11.20;;;5.70;;
3718;SDS011;1875;52.492;6.860;2024-03-02T07:48:32;8.45;;;4.75;;
3718;SDS011;1875;52.492;6.860;2024-03-02T07:51:00;8.63;;;5.10;;
3718;SDS011;1875;52.492;6.860;2024-03-02T07:53:29;7.07;;;4.07;;
3718;SDS011;1875;52.492;6.860;2024-03-02T07:55:56;9.52;;;4.63;;
3718;SDS011;1875;52.492;6.860;2024-03-02T07:58:28;8.52;;;4.40;;
3718;SDS011;1875;52.492;6.860;2024-03-02T08:00:57;7.28;;;3.63;;
3718;SDS011;1875;52.492;6.860;2024-03-02T08:03:29;7.25;;;3.58;;
3718;SDS011;1875;52.492;6.860;2024-03-02T08:05:58;8.02;;;3.60;;
3718;SDS011;1875;52.492;6.860;2024-03-02T08:08:26;6.10;;;3.38;;
3718;SDS011;1875;52.492;6.860;2024-03-02T08:10:54;7.45;;;3.58;;
3718;SDS011;1875;52.492;6.860;2024-03-02T08:15:52;8.60;;;4.10;;
3718;SDS011;1875;52.492;6.860;2024-03-02T08:18:20;9.85;;;3.90;;
3718;SDS011;1875;52.492;6.860;2024-03-02T08:20:49;7.70;;;2.50;;
3718;SDS011;1875;52.492;6.860;2024-03-02T08:23:17;6.47;;;3.47;;
3718;SDS011;1875;52.492;6.860;2024-03-02T08:25:45;6.15;;;3.08;;
3718;SDS011;1875;52.492;6.860;2024-03-02T08:28:13;5.90;;;3.05;;
3718;SDS011;1875;52.492;6.860;2024-03-02T08:30:41;6.57;;;2.40;;
3718;SDS011;1875;52.492;6.860;2024-03-02T08:33:09;5.95;;;2.97;;
3718;SDS011;1875;52.492;6.860;2024-03-02T08:35:37;5.65;;;3.05;;
3718;SDS011;1875;52.492;6.860;2024-03-02T08:38:06;5.18;;;2.67;;
3718;SDS011;1875;52.492;6.860;2024-03-02T08:40:34;8.90;;;3.05;;
3718;SDS011;1875;52.492;6.860;2024-03-02T08:43:02;4.95;;;2.35;;
3718;SDS011;1875;52.492;6.860;2024-03-02T08:45:30;8.38;;;3.10;;
3718;SDS011;1875;52.492;6.860;2024-03-02T08:47:58;8.23;;;3.22;;
3718;SDS011;1875;52.492;6.860;2024-03-02T08:50:26;8.77;;;3.08;;
3718;SDS011;1875;52.492;6.860;2024-03-02T08:52:54;7.00;;;3.25;;
3718;SDS011;1875;52.492;6.860;2024-03-02T08:55:23;7.28;;;2.83;;
3718;SDS011;1875;52.492;6.860;2024-03-02T08:57:51;7.80;;;3.33;;
3718;SDS011;1875;52.492;6.860;2024-03-02T09:00:19;6.60;;;2.92;;
3718;SDS011;1875;52.492;6.860;2024-03-02T09:02:47;5.07;;;3.35;;
3718;SDS011;1875;52.492;6.860;2024-03-02T09:05:15;6.38;;;2.78;;
3718;SDS011;1875;52.492;6.860;2024-03-02T09:07:43;7.65;;;3.05;;
3718;SDS011;1875;52.492;6.860;2024-03-02T09:10:11;5.03;;;2.70;;
3718;SDS011;1875;52.492;6.860;2024-03-02T09:12:40;6.35;;;2.85;;
3718;SDS011;1875;52.492;6.860;2024-03-02T09:15:08;7.75;;;3.50;;
3718;SDS011;1875;52.492;6.860;2024-03-02T09:17:36;8.35;;;3.30;;
3718;SDS011;1875;52.492;6.860;2024-03-02T09:20:05;6.82;;;2.63;;
3718;SDS011;1875;52.492;6.860;2024-03-02T09:22:33;7.20;;;3.00;;
3718;SDS011;1875;52.492;6.860;2024-03-02T09:25:01;5.55;;;2.83;;
3718;SDS011;1875;52.492;6.860;2024-03-02T09:27:29;8.13;;;2.72;;
3718;SDS011;1875;52.492;6.860;2024-03-02T09:29:58;6.10;;;3.00;;
3718;SDS011;1875;52.492;6.860;2024-03-02T09:32:26;6.18;;;2.83;;
3718;SDS011;1875;52.492;6.860;2024-03-02T09:34:53;6.45;;;3.22;;
3718;SDS011;1875;52.492;6.860;2024-03-02T09:37:22;5.38;;;2.90;;
3718;SDS011;1875;52.492;6.860;2024-03-02T09:39:50;6.40;;;2.47;;
3718;SDS011;1875;52.492;6.860;2024-03-02T09:42:18;4.88;;;2.20;;
3718;SDS011;1875;52.492;6.860;2024-03-02T09:44:50;5.60;;;2.30;;
3718;SDS011;1875;52.492;6.860;2024-03-02T09:47:19;3.05;;;1.70;;
3718;SDS011;1875;52.492;6.860;2024-03-02T09:49:47;5.05;;;1.80;;
3718;SDS011;1875;52.492;6.860;2024-03-02T09:52:15;3.25;;;1.50;;
3718;SDS011;1875;52.492;6.860;2024-03-02T09:54:43;4.93;;;1.75;;
3718;SDS011;1875;52.492;6.860;2024-03-02T09:57:11;3.40;;;1.60;;
3718;SDS011;1875;52.492;6.860;2024-03-02T09:59:39;4.47;;;1.58;;
3718;SDS011;1875;52.492;6.860;2024-03-02T10:02:07;3.22;;;1.55;;
3718;SDS011;1875;52.492;6.860;2024-03-02T10:04:36;5.88;;;2.13;;
3718;SDS011;1875;52.492;6.860;2024-03-02T10:07:10;5.70;;;1.55;;
3718;SDS011;1875;52.492;6.860;2024-03-02T10:09:39;4.25;;;1.73;;
3718;SDS011;1875;52.492;6.860;2024-03-02T10:12:08;3.55;;;1.67;;
3718;SDS011;1875;52.492;6.860;2024-03-02T10:14:37;2.92;;;1.40;;
3718;SDS011;1875;52.492;6.860;2024-03-02T10:17:06;2.88;;;1.40;;
3718;SDS011;1875;52.492;6.860;2024-03-02T10:19:36;2.50;;;1.20;;
3718;SDS011;1875;52.492;6.860;2024-03-02T10:22:05;3.33;;;1.42;;
3718;SDS011;1875;52.492;6.860;2024-03-02T10:24:37;4.55;;;1.90;;
3718;SDS011;1875;52.492;6.860;2024-03-02T10:27:09;4.20;;;1.75;;
3718;SDS011;1875;52.492;6.860;2024-03-02T10:29:38;7.13;;;3.10;;
3718;SDS011;1875;52.492;6.860;2024-03-02T10:34:40;3.08;;;1.95;;
3718;SDS011;1875;52.492;6.860;2024-03-02T10:37:10;3.90;;;2.15;;
3718;SDS011;1875;52.492;6.860;2024-03-02T10:39:38;6.18;;;2.75;;
3718;SDS011;1875;52.492;6.860;2024-03-02T10:42:07;5.18;;;2.20;;
3718;SDS011;1875;52.492;6.860;2024-03-02T10:44:36;4.10;;;2.50;;
3718;SDS011;1875;52.492;6.860;2024-03-02T10:47:04;4.30;;;2.47;;
3718;SDS011;1875;52.492;6.860;2024-03-02T10:49:32;7.45;;;3.30;;
3718;SDS011;1875;52.492;6.860;2024-03-02T10:52:02;5.55;;;2.70;;
3718;SDS011;1875;52.492;6.860;2024-03-02T10:54:30;4.53;;;3.10;;
3718;SDS011;1875;52.492;6.860;2024-03-02T10:57:04;5.35;;;2.90;;
3718;SDS011;1875;52.492;6.860;2024-03-02T10:59:32;5.30;;;3.30;;
3718;SDS011;1875;52.492;6.860;2024-03-02T11:02:01;4.82;;;3.10;;
3718;SDS011;1875;52.492;6.860;2024-03-02T11:04:32;5.75;;;3.17;;
3718;SDS011;1875;52.492;6.860;2024-03-02T11:07:04;6.95;;;3.53;;
3718;SDS011;1875;52.492;6.860;2024-03-02T11:09:33;6.20;;;3.33;;
3718;SDS011;1875;52.492;6.860;2024-03-02T11:12:03;4.85;;;3.00;;
3718;SDS011;1875;52.492;6.860;2024-03-02T11:14:32;6.95;;;3.88;;
3718;SDS011;1875;52.492;6.860;2024-03-02T11:17:01;7.70;;;4.00;;
3718;SDS011;1875;52.492;6.860;2024-03-02T11:19:31;7.80;;;3.97;;
3718;SDS011;1875;52.492;6.860;2024-03-02T11:22:00;6.63;;;3.70;;
3718;SDS011;1875;52.492;6.860;2024-03-02T11:24:31;6.65;;;4.20;;
3718;SDS011;1875;52.492;6.860;2024-03-02T11:27:04;5.00;;;3.47;;
3718;SDS011;1875;52.492;6.860;2024-03-02T11:29:43;6.25;;;3.28;;
3718;SDS011;1875;52.492;6.860;2024-03-02T11:32:15;5.97;;;3.17;;
3718;SDS011;1875;52.492;6.860;2024-03-02T11:34:45;4.25;;;2.80;;
3718;SDS011;1875;52.492;6.860;2024-03-02T11:37:15;4.38;;;2.45;;
3718;SDS011;1875;52.492;6.860;2024-03-02T11:39:44;6.38;;;2.97;;
3718;SDS011;1875;52.492;6.860;2024-03-02T11:42:12;6.05;;;2.40;;
3718;SDS011;1875;52.492;6.860;2024-03-02T11:47:10;5.40;;;2.10;;
3718;SDS011;1875;52.492;6.860;2024-03-02T11:49:41;3.78;;;2.42;;
3718;SDS011;1875;52.492;6.860;2024-03-02T11:52:10;6.18;;;2.53;;
3718;SDS011;1875;52.492;6.860;2024-03-02T11:54:41;5.80;;;3.83;;
3718;SDS011;1875;52.492;6.860;2024-03-02T11:57:13;7.88;;;4.13;;
3718;SDS011;1875;52.492;6.860;2024-03-02T11:59:42;6.03;;;3.75;;
3718;SDS011;1875;52.492;6.860;2024-03-02T12:02:17;7.70;;;3.92;;
3718;SDS011;1875;52.492;6.860;2024-03-02T12:04:45;4.78;;;3.38;;
3718;SDS011;1875;52.492;6.860;2024-03-02T12:07:18;6.65;;;3.55;;
3718;SDS011;1875;52.492;6.860;2024-03-02T12:09:48;7.05;;;3.53;;
3718;SDS011;1875;52.492;6.860;2024-03-02T12:12:16;5.07;;;3.28;;
3718;SDS011;1875;52.492;6.860;2024-03-02T12:14:50;6.88;;;3.20;;
3718;SDS011;1875;52.492;6.860;2024-03-02T12:17:18;6.63;;;2.95;;
3718;SDS011;1875;52.492;6.860;2024-03-02T12:19:46;6.40;;;3.30;;
3718;SDS011;1875;52.492;6.860;2024-03-02T12:22:14;5.00;;;2.90;;
3718;SDS011;1875;52.492;6.860;2024-03-02T12:24:42;5.20;;;2.75;;
3718;SDS011;1875;52.492;6.860;2024-03-02T12:27:13;5.85;;;2.97;;
3718;SDS011;1875;52.492;6.860;2024-03-02T12:29:42;7.35;;;2.80;;
3718;SDS011;1875;52.492;6.860;2024-03-02T12:32:10;6.30;;;2.65;;
3718;SDS011;1875;52.492;6.860;2024-03-02T12:34:38;4.10;;;2.30;;
3718;SDS011;1875;52.492;6.860;2024-03-02T12:37:06;5.97;;;2.10;;
3718;SDS011;1875;52.492;6.860;2024-03-02T12:39:34;3.30;;;1.85;;
3718;SDS011;1875;52.492;6.860;2024-03-02T12:42:02;3.10;;;1.73;;
3718;SDS011;1875;52.492;6.860;2024-03-02T12:44:31;2.92;;;1.63;;
3718;SDS011;1875;52.492;6.860;2024-03-02T12:46:59;2.92;;;1.67;;
3718;SDS011;1875;52.492;6.860;2024-03-02T12:49:27;5.00;;;1.55;;
3718;SDS011;1875;52.492;6.860;2024-03-02T12:54:24;2.90;;;1.40;;
3718;SDS011;1875;52.492;6.860;2024-03-02T12:56:53;3.40;;;1.50;;
3718;SDS011;1875;52.492;6.860;2024-03-02T12:59:23;4.95;;;1.83;;
3718;SDS011;1875;52.492;6.860;2024-03-02T13:01:54;3.85;;;1.10;;
3718;SDS011;1875;52.492;6.860;2024-03-02T13:04:24;2.83;;;1.30;;
3718;SDS011;1875;52.492;6.860;2024-03-02T13:06:52;3.15;;;1.55;;
3718;SDS011;1875;52.492;6.860;2024-03-02T13:09:22;3.10;;;1.65;;
3718;SDS011;1875;52.492;6.860;2024-03-02T13:11:51;4.80;;;1.88;;
3718;SDS011;1875;52.492;6.860;2024-03-02T13:14:21;2.60;;;1.60;;
3718;SDS011;1875;52.492;6.860;2024-03-02T13:16:51;3.58;;;1.65;;
3718;SDS011;1875;52.492;6.860;2024-03-02T13:19:20;5.70;;;1.95;;
3718;SDS011;1875;52.492;6.860;2024-03-02T13:21:48;5.25;;;1.90;;
3718;SDS011;1875;52.492;6.860;2024-03-02T13:24:17;3.95;;;1.70;;
3718;SDS011;1875;52.492;6.860;2024-03-02T13:26:46;3.83;;;1.80;;
3718;SDS011;1875;52.492;6.860;2024-03-02T13:29:14;4.10;;;1.85;;
3718;SDS011;1875;52.492;6.860;2024-03-02T13:31:41;3.45;;;1.40;;
3718;SDS011;1875;52.492;6.860;2024-03-02T13:34:10;3.80;;;1.63;;
3718;SDS011;1875;52.492;6.860;2024-03-02T13:36:39;4.13;;;1.80;;
3718;SDS011;1875;52.492;6.860;2024-03-02T13:39:07;3.83;;;1.20;;
3718;SDS011;1875;52.492;6.860;2024-03-02T13:44:04;3.15;;;1.63;;
3718;SDS011;1875;52.492;6.860;2024-03-02T13:46:32;3.47;;;1.38;;
3718;SDS011;1875;52.492;6.860;2024-03-02T13:49:00;3.88;;;1.58;;
3718;SDS011;1875;52.492;6.860;2024-03-02T13:51:28;3.28;;;1.73;;
3718;SDS011;1875;52.492;6.860;2024-03-02T13:53:57;3.10;;;1.20;;
3718;SDS011;1875;52.492;6.860;2024-03-02T13:56:25;5.68;;;1.50;;
3718;SDS011;1875;52.492;6.860;2024-03-02T13:58:53;2.90;;;1.30;;
3718;SDS011;1875;52.492;6.860;2024-03-02T14:01:20;3.08;;;1.35;;
3718;SDS011;1875;52.492;6.860;2024-03-02T14:03:48;2.28;;;1.23;;
3718;SDS011;1875;52.492;6.860;2024-03-02T14:06:17;4.50;;;1.70;;
3718;SDS011;1875;52.492;6.860;2024-03-02T14:08:45;4.93;;;1.73;;
3718;SDS011;1875;52.492;6.860;2024-03-02T14:11:16;4.20;;;1.42;;
3718;SDS011;1875;52.492;6.860;2024-03-02T14:13:44;3.03;;;1.20;;
3718;SDS011;1875;52.492;6.860;2024-03-02T14:16:16;2.22;;;1.05;;
3718;SDS011;1875;52.492;6.860;2024-03-02T14:18:43;4.43;;;1.15;;
3718;SDS011;1875;52.492;6.860;2024-03-02T14:21:11;3.15;;;1.48;;
3718;SDS011;1875;52.492;6.860;2024-03-02T14:23:39;4.60;;;1.60;;
3718;SDS011;1875;52.492;6.860;2024-03-02T14:26:07;5.63;;;1.52;;
3718;SDS011;1875;52.492;6.860;2024-03-02T14:28:36;5.07;;;1.60;;
3718;SDS011;1875;52.492;6.860;2024-03-02T14:31:16;2.92;;;1.60;;
3718;SDS011;1875;52.492;6.860;2024-03-02T14:33:44;3.72;;;1.60;;
3718;SDS011;1875;52.492;6.860;2024-03-02T14:36:12;2.58;;;1.30;;
3718;SDS011;1875;52.492;6.860;2024-03-02T14:38:40;2.63;;;1.25;;
3718;SDS011;1875;52.492;6.860;2024-03-02T14:41:08;4.35;;;1.27;;
3718;SDS011;1875;52.492;6.860;2024-03-02T14:43:37;3.78;;;1.20;;
3718;SDS011;1875;52.492;6.860;2024-03-02T14:46:05;3.65;;;1.08;;
3718;SDS011;1875;52.492;6.860;2024-03-02T14:48:34;4.32;;;1.40;;
3718;SDS011;1875;52.492;6.860;2024-03-02T14:51:02;3.28;;;1.10;;
3718;SDS011;1875;52.492;6.860;2024-03-02T14:53:31;4.95;;;1.27;;
3718;SDS011;1875;52.492;6.860;2024-03-02T14:55:58;5.03;;;1.40;;
3718;SDS011;1875;52.492;6.860;2024-03-02T14:58:26;4.45;;;1.63;;
3718;SDS011;1875;52.492;6.860;2024-03-02T15:00:55;2.28;;;1.00;;
3718;SDS011;1875;52.492;6.860;2024-03-02T15:03:23;2.67;;;1.08;;
3718;SDS011;1875;52.492;6.860;2024-03-02T15:05:51;3.58;;;1.08;;
3718;SDS011;1875;52.492;6.860;2024-03-02T15:08:20;26.77;;;14.10;;
3718;SDS011;1875;52.492;6.860;2024-03-02T15:10:48;5.18;;;2.45;;
3718;SDS011;1875;52.492;6.860;2024-03-02T15:13:15;6.47;;;4.13;;
3718;SDS011;1875;52.492;6.860;2024-03-02T15:15:43;65.50;;;22.20;;
3718;SDS011;1875;52.492;6.860;2024-03-02T15:18:13;124.07;;;41.15;;
3718;SDS011;1875;52.492;6.860;2024-03-02T15:20:42;41.38;;;13.10;;
3718;SDS011;1875;52.492;6.860;2024-03-02T15:23:09;35.33;;;10.88;;
3718;SDS011;1875;52.492;6.860;2024-03-02T15:25:37;8.10;;;3.15;;
3718;SDS011;1875;52.492;6.860;2024-03-02T15:28:05;28.15;;;11.18;;
3718;SDS011;1875;52.492;6.860;2024-03-02T15:30:33;10.02;;;4.68;;
3718;SDS011;1875;52.492;6.860;2024-03-02T15:33:01;7.30;;;3.80;;
3718;SDS011;1875;52.492;6.860;2024-03-02T15:35:31;3.03;;;1.45;;
3718;SDS011;1875;52.492;6.860;2024-03-02T15:37:59;3.45;;;1.38;;
3718;SDS011;1875;52.492;6.860;2024-03-02T15:40:27;3.30;;;1.52;;
3718;SDS011;1875;52.492;6.860;2024-03-02T15:42:55;2.90;;;1.30;;
3718;SDS011;1875;52.492;6.860;2024-03-02T15:45:23;4.20;;;0.90;;
3718;SDS011;1875;52.492;6.860;2024-03-02T15:47:52;2.25;;;0.95;;